Terminal Aerodrome Forecast
Issued by NWS

Home | Current Version | Previous Version | Text Only | Print | Product List | Glossary On
Versions: 1 2 3 4 5 6 7 8 9 10 11 12 13 14 15 16 17 18
028
FTUS46 KLOX 222357
TAFSBP
TAF
KSBP 222357Z 2300/2324 31015KT P6SM SCT250
     FM230300 31006KT P6SM SCT250
     FM230600 VRB03KT 4SM BR VCFG BKN004
     FM231000 00000KT 1/2SM FG VV002
     FM231500 VRB03KT 4SM BR BKN004
     FM231700 31006KT P6SM FEW007
     FM232000 30012KT P6SM SKC=

USA.gov is the U.S. government's official web portal to all federal, state and local government web resources and services.